createdAt,value
2023-04-09T00:01:41.863Z,17.90
2023-04-09T00:04:09.545Z,17.93
2023-04-09T00:06:37.151Z,17.10
2023-04-09T00:09:05.979Z,16.70
2023-04-09T00:11:33.698Z,17.37
2023-04-09T00:14:01.363Z,17.30
2023-04-09T00:16:29.039Z,17.80
2023-04-09T00:18:56.736Z,17.53
2023-04-09T00:21:24.314Z,16.97
2023-04-09T00:23:51.706Z,17.93
2023-04-09T00:26:21.394Z,17.80
2023-04-09T00:28:48.839Z,17.60
2023-04-09T00:31:16.492Z,17.20
2023-04-09T00:33:44.122Z,16.30
2023-04-09T00:36:11.608Z,16.10
2023-04-09T00:38:39.116Z,15.73
2023-04-09T00:41:06.630Z,17.17
2023-04-09T00:43:35.415Z,17.27
2023-04-09T00:46:02.904Z,16.80
2023-04-09T00:48:30.484Z,17.40
2023-04-09T00:50:57.952Z,16.50
2023-04-09T00:53:26.351Z,16.67
2023-04-09T00:55:53.837Z,16.67
2023-04-09T00:58:21.276Z,16.63
2023-04-09T01:00:50.144Z,16.87
2023-04-09T01:03:17.772Z,16.10
2023-04-09T01:05:47.748Z,16.67
2023-04-09T01:08:17.562Z,16.97
2023-04-09T01:10:48.381Z,15.70
2023-04-09T01:13:19.706Z,16.40
2023-04-09T01:15:48.972Z,15.80
2023-04-09T01:18:20.392Z,16.10
2023-04-09T01:20:50.902Z,16.57
2023-04-09T01:23:20.056Z,16.10
2023-04-09T01:25:54.567Z,15.70
2023-04-09T01:28:24.649Z,15.30
2023-04-09T01:30:54.767Z,15.73
2023-04-09T01:33:23.103Z,16.03
2023-04-09T01:35:50.967Z,14.53
2023-04-09T01:38:20.722Z,15.37
2023-04-09T01:40:48.732Z,15.43
2023-04-09T01:43:16.561Z,15.97
2023-04-09T01:45:46.065Z,14.87
2023-04-09T01:48:13.996Z,14.80
2023-04-09T01:50:41.792Z,14.53
2023-04-09T01:53:09.274Z,15.00
2023-04-09T01:55:36.768Z,15.00
2023-04-09T01:58:04.478Z,15.00
2023-04-09T02:00:32.935Z,14.57
2023-04-09T02:03:06.135Z,15.07
2023-04-09T02:05:35.651Z,14.47
2023-04-09T02:08:03.946Z,14.30
2023-04-09T02:10:32.611Z,14.43
2023-04-09T02:13:01.360Z,14.70
2023-04-09T02:15:29.631Z,14.50
2023-04-09T02:17:57.216Z,14.80
2023-04-09T02:20:26.000Z,14.30
2023-04-09T02:22:53.468Z,14.47
2023-04-09T02:25:22.099Z,14.90
2023-04-09T02:27:50.024Z,14.57
2023-04-09T02:30:17.511Z,14.97
2023-04-09T02:32:44.944Z,14.80
2023-04-09T02:35:12.454Z,15.87
2023-04-09T02:37:41.192Z,15.33
2023-04-09T02:40:09.018Z,16.20
2023-04-09T02:42:36.473Z,14.83
2023-04-09T02:45:04.199Z,16.00
2023-04-09T02:47:31.644Z,15.50
2023-04-09T02:49:59.181Z,16.40
2023-04-09T02:52:26.672Z,15.33
2023-04-09T02:54:55.449Z,15.00
2023-04-09T02:57:22.871Z,16.10
2023-04-09T02:59:50.287Z,15.87
2023-04-09T03:02:17.880Z,17.87
2023-04-09T03:04:45.940Z,16.70
2023-04-09T03:07:13.386Z,16.93
2023-04-09T03:09:40.842Z,17.43
2023-04-09T03:12:09.619Z,17.57
2023-04-09T03:14:36.986Z,15.20
2023-04-09T03:17:04.454Z,15.80
2023-04-09T03:19:31.907Z,18.37
2023-04-09T03:21:59.307Z,17.57
2023-04-09T03:24:26.791Z,16.40
2023-04-09T03:26:54.213Z,16.93
2023-04-09T03:29:22.982Z,16.90
2023-04-09T03:31:50.784Z,16.30
2023-04-09T03:34:18.274Z,16.20
2023-04-09T03:36:45.940Z,15.73
2023-04-09T03:39:13.394Z,16.73
2023-04-09T03:41:40.820Z,18.00
2023-04-09T03:44:08.267Z,17.90
2023-04-09T03:46:37.144Z,18.40
2023-04-09T03:49:04.555Z,17.47
2023-04-09T03:51:32.079Z,17.50
2023-04-09T03:53:59.534Z,17.30
2023-04-09T03:56:26.988Z,17.27
2023-04-09T03:58:54.806Z,17.30
2023-04-09T04:01:22.424Z,18.10
2023-04-09T04:03:51.275Z,17.63
2023-04-09T04:06:18.734Z,18.43
2023-04-09T04:08:46.123Z,18.13
2023-04-09T04:11:13.694Z,17.00
2023-04-09T04:13:41.307Z,18.47
2023-04-09T04:16:10.304Z,16.67
2023-04-09T04:18:38.100Z,16.30
2023-04-09T04:21:07.047Z,16.50
2023-04-09T04:23:35.145Z,17.57
2023-04-09T04:26:03.411Z,16.40
2023-04-09T04:28:30.845Z,16.90
2023-04-09T04:30:58.294Z,16.00
2023-04-09T04:33:25.730Z,15.13
2023-04-09T04:35:53.223Z,15.00
2023-04-09T04:38:22.000Z,15.27
2023-04-09T04:40:49.472Z,14.60
2023-04-09T04:43:16.935Z,13.77
2023-04-09T04:45:44.359Z,13.10
2023-04-09T04:48:11.889Z,13.47
2023-04-09T04:50:39.276Z,12.63
2023-04-09T04:53:06.749Z,12.17
2023-04-09T04:55:39.441Z,12.20
2023-04-09T04:58:06.913Z,11.43
2023-04-09T05:00:34.327Z,11.17
2023-04-09T05:03:02.014Z,10.50
2023-04-09T05:05:29.655Z,10.40
2023-04-09T05:07:57.180Z,11.47
2023-04-09T05:10:24.698Z,10.33
2023-04-09T05:12:53.500Z,10.80
2023-04-09T05:15:21.033Z,10.67
2023-04-09T05:17:48.501Z,10.30
2023-04-09T05:20:16.074Z,10.00
2023-04-09T05:22:43.475Z,9.90
2023-04-09T05:25:11.322Z,10.53
2023-04-09T05:27:38.773Z,10.90
2023-04-09T05:30:08.623Z,10.07
2023-04-09T05:32:36.074Z,10.60
2023-04-09T05:35:03.583Z,11.40
2023-04-09T05:37:31.241Z,20.70
2023-04-09T05:39:58.695Z,14.80
2023-04-09T05:42:26.771Z,39.90
2023-04-09T05:44:54.223Z,37.90
2023-04-09T05:47:23.230Z,15.53
2023-04-09T05:49:50.698Z,12.50
2023-04-09T05:52:18.269Z,13.87
2023-04-09T05:54:45.842Z,25.47
2023-04-09T05:57:13.593Z,18.17
2023-04-09T05:59:41.203Z,14.20
2023-04-09T06:02:08.723Z,12.17
2023-04-09T06:04:37.734Z,12.40
2023-04-09T06:07:05.216Z,10.13
2023-04-09T06:09:32.684Z,13.30
2023-04-09T06:12:00.529Z,19.17
2023-04-09T06:14:27.974Z,13.00
2023-04-09T06:16:55.488Z,22.93
2023-04-09T06:19:22.957Z,10.40
2023-04-09T06:21:51.762Z,11.03
2023-04-09T06:24:19.156Z,9.97
2023-04-09T06:26:47.198Z,10.93
2023-04-09T06:29:14.693Z,10.27
2023-04-09T06:31:42.433Z,11.47
2023-04-09T06:34:10.920Z,11.40
2023-04-09T06:36:40.285Z,12.77
2023-04-09T06:39:09.136Z,11.60
2023-04-09T06:41:36.769Z,26.13
2023-04-09T06:44:04.208Z,10.23
2023-04-09T06:46:31.650Z,11.30
2023-04-09T06:48:59.139Z,15.70
2023-04-09T06:51:27.053Z,15.40
2023-04-09T06:53:55.110Z,10.30
2023-04-09T06:56:24.213Z,14.20
2023-04-09T06:58:52.044Z,11.00
2023-04-09T07:01:19.522Z,9.30
2023-04-09T07:03:47.456Z,10.10
2023-04-09T07:06:14.959Z,13.00
2023-04-09T07:08:42.341Z,9.53
2023-04-09T07:11:09.777Z,9.90
2023-04-09T07:13:38.553Z,10.07
2023-04-09T07:16:06.421Z,12.17
2023-04-09T07:18:33.842Z,10.97
2023-04-09T07:21:01.330Z,13.67
2023-04-09T07:23:28.870Z,12.47
2023-04-09T07:25:56.759Z,10.43
2023-04-09T07:28:24.254Z,9.77
2023-04-09T07:30:53.496Z,14.10
2023-04-09T07:33:21.086Z,9.47
2023-04-09T07:35:48.725Z,9.03
2023-04-09T07:38:16.575Z,9.50
2023-04-09T07:40:44.148Z,8.67
2023-04-09T07:43:11.634Z,8.73
2023-04-09T07:45:39.147Z,9.10
2023-04-09T07:48:09.244Z,8.70
2023-04-09T07:50:36.809Z,8.60
2023-04-09T07:53:04.214Z,9.07
2023-04-09T07:55:31.739Z,8.90
2023-04-09T07:57:59.591Z,8.50
2023-04-09T08:00:27.012Z,8.33
2023-04-09T08:02:54.763Z,8.13
2023-04-09T08:05:23.938Z,8.33
2023-04-09T08:07:51.549Z,7.53
2023-04-09T08:10:18.981Z,8.20
2023-04-09T08:12:48.579Z,8.60
2023-04-09T08:15:16.135Z,7.87
2023-04-09T08:17:43.695Z,7.63
2023-04-09T08:20:11.746Z,7.73
2023-04-09T08:22:42.124Z,8.00
2023-04-09T08:25:09.702Z,7.80
2023-04-09T08:27:37.146Z,7.77
2023-04-09T08:30:04.907Z,7.93
2023-04-09T08:32:32.314Z,7.43
2023-04-09T08:34:59.809Z,6.97
2023-04-09T08:37:27.344Z,6.93
2023-04-09T08:39:56.292Z,8.20
2023-04-09T08:42:24.182Z,6.40
2023-04-09T08:44:51.651Z,5.87
2023-04-09T08:47:20.472Z,6.50
2023-04-09T08:49:50.267Z,5.97
2023-04-09T08:52:21.747Z,5.87
2023-04-09T08:54:49.238Z,5.60
2023-04-09T08:57:18.211Z,5.00
2023-04-09T08:59:46.474Z,5.47
2023-04-09T09:02:14.004Z,5.10
2023-04-09T09:04:45.564Z,5.13
2023-04-09T09:07:13.205Z,4.40
2023-04-09T09:09:55.723Z,5.20
2023-04-09T09:12:34.839Z,5.50
2023-04-09T09:15:02.252Z,5.33
2023-04-09T09:17:29.910Z,5.20
2023-04-09T09:19:57.693Z,5.70
2023-04-09T09:22:25.657Z,6.00
2023-04-09T09:24:53.743Z,5.60
2023-04-09T09:27:36.773Z,5.83
2023-04-09T09:30:05.783Z,5.30
2023-04-09T09:32:33.422Z,6.10
2023-04-09T09:35:04.886Z,5.83
2023-04-09T09:37:32.859Z,5.50
2023-04-09T09:40:00.613Z,6.47
2023-04-09T09:42:28.090Z,6.40
2023-04-09T09:44:57.304Z,5.73
2023-04-09T09:47:25.351Z,5.20
2023-04-09T09:49:52.961Z,5.93
2023-04-09T09:52:22.272Z,6.23
2023-04-09T09:54:53.037Z,6.53
2023-04-09T09:57:22.172Z,5.63
2023-04-09T09:59:53.393Z,6.50
2023-04-09T10:02:23.862Z,6.30
2023-04-09T10:04:52.611Z,6.30
2023-04-09T10:07:20.892Z,5.77
2023-04-09T10:09:50.523Z,6.00
2023-04-09T10:12:18.261Z,5.30
2023-04-09T10:14:45.946Z,5.73
2023-04-09T10:17:13.382Z,5.50
2023-04-09T10:19:46.339Z,5.80
2023-04-09T10:22:17.225Z,5.60
2023-04-09T10:24:45.057Z,5.10
2023-04-09T10:27:15.759Z,6.10
2023-04-09T10:29:45.001Z,5.63
2023-04-09T10:32:12.706Z,5.60
2023-04-09T10:34:40.810Z,5.03
2023-04-09T10:37:10.679Z,4.77
2023-04-09T10:39:40.502Z,5.17
2023-04-09T10:42:09.669Z,4.93
2023-04-09T10:44:41.559Z,5.30
2023-04-09T10:47:09.613Z,4.73
2023-04-09T10:49:37.513Z,5.27
2023-04-09T10:52:06.254Z,5.00
2023-04-09T10:54:44.015Z,5.20
2023-04-09T10:57:13.662Z,4.90
2023-04-09T10:59:42.123Z,4.57
2023-04-09T11:02:10.345Z,4.50
2023-04-09T11:04:40.260Z,4.60
2023-04-09T11:07:08.706Z,4.60
2023-04-09T11:09:36.478Z,4.57
2023-04-09T11:12:05.418Z,4.33
2023-04-09T11:14:34.244Z,4.50
2023-04-09T11:17:04.116Z,4.20
2023-04-09T11:19:31.545Z,4.67
2023-04-09T11:22:00.058Z,4.37
2023-04-09T11:24:27.492Z,4.57
2023-04-09T11:26:56.745Z,4.03
2023-04-09T11:29:25.578Z,3.70
2023-04-09T11:31:53.071Z,3.60
2023-04-09T11:34:20.534Z,4.57
2023-04-09T11:36:49.893Z,4.50
2023-04-09T11:39:17.503Z,4.40
2023-04-09T11:41:44.971Z,4.30
2023-04-09T11:44:12.357Z,4.60
2023-04-09T11:46:41.841Z,4.27
2023-04-09T11:49:09.813Z,4.30
2023-04-09T11:51:37.648Z,4.23
2023-04-09T11:54:06.424Z,3.90
2023-04-09T11:56:35.492Z,4.27
2023-04-09T11:59:03.150Z,4.17
2023-04-09T12:01:32.376Z,4.70
2023-04-09T12:04:01.900Z,4.60
2023-04-09T12:06:30.189Z,4.82
2023-04-09T12:08:57.920Z,4.27
2023-04-09T12:11:29.084Z,4.40
2023-04-09T12:13:59.845Z,4.70
2023-04-09T12:16:27.346Z,4.37
2023-04-09T12:18:55.828Z,4.30
2023-04-09T12:21:27.829Z,4.60
2023-04-09T12:23:55.252Z,4.33
2023-04-09T12:26:22.706Z,4.20
2023-04-09T12:28:50.202Z,4.00
2023-04-09T12:31:17.783Z,3.77
2023-04-09T12:33:45.277Z,4.10
2023-04-09T12:36:13.032Z,4.10
2023-04-09T12:38:41.900Z,4.30
2023-04-09T12:41:09.525Z,4.33
2023-04-09T12:43:37.151Z,4.40
2023-04-09T12:46:04.874Z,4.33
2023-04-09T12:48:32.993Z,4.20
2023-04-09T12:51:00.486Z,4.40
2023-04-09T12:53:27.975Z,4.27
2023-04-09T12:55:57.043Z,3.90
2023-04-09T12:58:24.945Z,4.57
2023-04-09T13:00:53.660Z,4.13
2023-04-09T13:03:21.588Z,4.60
2023-04-09T13:05:49.459Z,4.20
2023-04-09T13:08:17.261Z,4.50
2023-04-09T13:10:45.057Z,4.37
2023-04-09T13:13:13.815Z,4.27
2023-04-09T13:15:43.303Z,4.00
2023-04-09T13:18:10.884Z,4.40
2023-04-09T13:20:38.526Z,3.77
2023-04-09T13:23:06.148Z,4.80
2023-04-09T13:25:33.592Z,4.20
2023-04-09T13:28:01.071Z,4.10
2023-04-09T13:30:29.807Z,4.17
2023-04-09T13:32:57.407Z,4.00
2023-04-09T13:35:24.864Z,4.30
2023-04-09T13:37:52.554Z,4.30
2023-04-09T13:40:20.620Z,3.97
2023-04-09T13:42:48.099Z,4.33
2023-04-09T13:45:15.562Z,4.00
2023-04-09T13:47:44.332Z,4.30
2023-04-09T13:50:13.126Z,4.20
2023-04-09T13:52:40.722Z,3.73
2023-04-09T13:55:09.025Z,4.50
2023-04-09T13:57:36.554Z,3.80
2023-04-09T14:00:05.750Z,4.30
2023-04-09T14:02:33.500Z,4.40
2023-04-09T14:05:04.134Z,4.30
2023-04-09T14:07:32.145Z,4.67
2023-04-09T14:09:59.710Z,4.70
2023-04-09T14:12:27.104Z,4.30
2023-04-09T14:14:54.562Z,4.37
2023-04-09T14:17:21.990Z,4.43
2023-04-09T14:19:49.440Z,4.53
2023-04-09T14:22:18.292Z,4.60
2023-04-09T14:24:45.683Z,3.97
2023-04-09T14:27:13.104Z,4.13
2023-04-09T14:29:40.598Z,4.20
2023-04-09T14:32:08.077Z,3.97
2023-04-09T14:34:35.828Z,4.50
2023-04-09T14:37:03.831Z,4.20
2023-04-09T14:39:32.710Z,4.40
2023-04-09T14:42:00.954Z,4.50
2023-04-09T14:44:28.446Z,3.93
2023-04-09T14:46:56.244Z,4.23
2023-04-09T14:49:23.746Z,4.30
2023-04-09T14:51:51.208Z,4.10
2023-04-09T14:54:18.620Z,4.47
2023-04-09T14:56:47.423Z,4.17
2023-04-09T14:59:14.865Z,4.17
2023-04-09T15:01:42.446Z,4.10
2023-04-09T15:04:10.100Z,4.20
2023-04-09T15:06:37.729Z,4.00
2023-04-09T15:09:05.364Z,3.67
2023-04-09T15:11:32.802Z,4.03
2023-04-09T15:14:03.074Z,4.30
2023-04-09T15:16:33.226Z,4.00
2023-04-09T15:19:02.614Z,3.90
2023-04-09T15:21:31.533Z,3.60
2023-04-09T15:23:59.115Z,3.67
2023-04-09T15:26:27.022Z,3.70
2023-04-09T15:28:58.101Z,3.50
2023-04-09T15:31:27.010Z,3.63
2023-04-09T15:33:54.562Z,4.20
2023-04-09T15:36:22.362Z,4.20
2023-04-09T15:38:49.815Z,4.23
2023-04-09T15:41:18.025Z,3.80
2023-04-09T15:43:45.528Z,3.90
2023-04-09T15:46:13.126Z,3.87
2023-04-09T15:48:42.023Z,4.27
2023-04-09T15:51:09.917Z,4.00
2023-04-09T15:53:37.319Z,3.70
2023-04-09T15:56:05.426Z,3.77
2023-04-09T15:58:32.869Z,4.00
2023-04-09T16:01:01.428Z,3.67
2023-04-09T16:03:29.314Z,3.73
2023-04-09T16:06:01.497Z,3.83
2023-04-09T16:08:28.922Z,3.87
2023-04-09T16:10:56.503Z,3.47
2023-04-09T16:13:23.882Z,3.47
2023-04-09T16:15:51.365Z,4.03
2023-04-09T16:18:18.911Z,4.03
2023-04-09T16:20:46.563Z,3.90
2023-04-09T16:23:15.523Z,3.47
2023-04-09T16:25:43.113Z,3.90
2023-04-09T16:28:10.661Z,3.70
2023-04-09T16:30:38.195Z,4.00
2023-04-09T16:33:06.397Z,3.60
2023-04-09T16:35:33.839Z,3.60
2023-04-09T16:38:01.759Z,3.80
2023-04-09T16:40:30.817Z,3.53
2023-04-09T16:42:58.246Z,3.77
2023-04-09T16:45:25.781Z,3.90
2023-04-09T16:47:55.221Z,4.20
2023-04-09T16:50:22.702Z,3.60
2023-04-09T16:52:50.371Z,3.80
2023-04-09T16:55:17.863Z,3.80
2023-04-09T16:57:47.216Z,4.13
2023-04-09T17:00:17.439Z,3.97
2023-04-09T17:02:45.959Z,3.53
2023-04-09T17:05:13.638Z,4.47
2023-04-09T17:07:41.157Z,3.97
2023-04-09T17:10:09.216Z,3.53
2023-04-09T17:12:36.775Z,3.83
2023-04-09T17:15:06.262Z,3.60
2023-04-09T17:17:34.744Z,3.50
2023-04-09T17:20:02.478Z,3.90
2023-04-09T17:22:29.976Z,3.30
2023-04-09T17:24:57.448Z,2.97
2023-04-09T17:27:24.931Z,4.40
2023-04-09T17:29:53.741Z,5.03
2023-04-09T17:32:22.808Z,3.87
2023-04-09T17:34:50.511Z,4.57
2023-04-09T17:37:18.221Z,10.20
2023-04-09T17:39:45.743Z,6.97
2023-04-09T17:42:13.221Z,4.63
2023-04-09T17:44:41.321Z,3.53
2023-04-09T17:47:09.045Z,3.60
2023-04-09T17:49:37.881Z,3.60
2023-04-09T17:52:05.421Z,3.27
2023-04-09T17:54:33.541Z,3.60
2023-04-09T17:57:01.165Z,3.53
2023-04-09T17:59:28.973Z,3.37
2023-04-09T18:01:56.782Z,3.20
2023-04-09T18:04:25.084Z,3.77
2023-04-09T18:06:55.096Z,4.93
2023-04-09T18:09:22.558Z,5.00
2023-04-09T18:11:53.454Z,4.40
2023-04-09T18:14:20.981Z,3.93
2023-04-09T18:16:48.617Z,4.10
2023-04-09T18:19:16.139Z,3.90
2023-04-09T18:21:43.595Z,3.87
2023-04-09T18:24:12.455Z,3.60
2023-04-09T18:26:39.838Z,3.73
2023-04-09T18:29:07.691Z,3.73
2023-04-09T18:31:35.535Z,3.80
2023-04-09T18:34:02.982Z,3.83
2023-04-09T18:36:30.434Z,3.80
2023-04-09T18:38:59.019Z,4.20
2023-04-09T18:41:27.988Z,4.20
2023-04-09T18:43:55.907Z,4.67
2023-04-09T18:46:23.726Z,4.70
2023-04-09T18:48:51.677Z,4.60
2023-04-09T18:51:20.847Z,5.00
2023-04-09T18:53:52.579Z,4.40
2023-04-09T18:56:20.260Z,4.40
2023-04-09T18:58:49.650Z,5.00
2023-04-09T19:01:17.510Z,4.90
2023-04-09T19:03:45.539Z,4.70
2023-04-09T19:06:14.378Z,4.43
2023-04-09T19:08:41.927Z,4.40
2023-04-09T19:11:09.493Z,4.50
2023-04-09T19:13:37.763Z,4.43
2023-04-09T19:16:08.963Z,4.30
2023-04-09T19:18:36.740Z,4.70
2023-04-09T19:21:04.836Z,4.30
2023-04-09T19:23:34.200Z,4.60
2023-04-09T19:26:01.771Z,4.30
2023-04-09T19:28:29.711Z,4.30
2023-04-09T19:30:58.260Z,4.30
2023-04-09T19:33:27.540Z,4.23
2023-04-09T19:35:55.915Z,5.37
2023-04-09T19:38:23.389Z,5.47
2023-04-09T19:40:50.917Z,4.80
2023-04-09T19:43:18.382Z,4.90
2023-04-09T19:45:45.908Z,4.80
2023-04-09T19:48:13.367Z,5.00
2023-04-09T19:50:43.347Z,4.80
2023-04-09T19:53:10.972Z,4.67
2023-04-09T19:55:38.483Z,4.50
2023-04-09T19:58:06.326Z,4.30
2023-04-09T20:00:33.959Z,4.70
2023-04-09T20:03:01.640Z,4.60
2023-04-09T20:05:30.210Z,4.27
2023-04-09T20:07:59.372Z,4.47
2023-04-09T20:10:26.748Z,5.17
2023-04-09T20:12:54.629Z,5.30
2023-04-09T20:15:22.195Z,4.57
2023-04-09T20:17:49.915Z,4.70
2023-04-09T20:20:19.729Z,5.23
2023-04-09T20:22:55.503Z,5.30
2023-04-09T20:25:25.360Z,5.20
2023-04-09T20:27:53.555Z,4.83
2023-04-09T20:30:21.359Z,4.93
2023-04-09T20:32:49.582Z,5.33
2023-04-09T20:35:17.378Z,5.47
2023-04-09T20:37:45.363Z,5.33
2023-04-09T20:40:13.378Z,5.67
2023-04-09T20:42:42.328Z,5.50
2023-04-09T20:45:10.225Z,5.27
2023-04-09T20:47:37.712Z,5.43
2023-04-09T20:50:05.416Z,5.20
2023-04-09T20:52:32.841Z,5.27
2023-04-09T20:55:00.911Z,5.40
2023-04-09T20:57:28.421Z,5.87
2023-04-09T20:59:57.266Z,4.90
2023-04-09T21:02:25.619Z,5.27
2023-04-09T21:04:53.196Z,5.73
2023-04-09T21:07:20.724Z,5.10
2023-04-09T21:09:48.204Z,5.53
2023-04-09T21:12:15.744Z,5.70
2023-04-09T21:14:43.241Z,5.17
2023-04-09T21:17:12.093Z,5.17
2023-04-09T21:19:39.595Z,5.53
2023-04-09T21:22:06.987Z,5.50
2023-04-09T21:24:35.327Z,6.20
2023-04-09T21:27:06.728Z,6.17
2023-04-09T21:29:34.753Z,5.80
2023-04-09T21:32:02.176Z,5.70
2023-04-09T21:34:31.464Z,5.50
2023-04-09T21:36:59.076Z,5.70
2023-04-09T21:39:26.596Z,5.67
2023-04-09T21:41:54.030Z,5.80
2023-04-09T21:44:21.502Z,5.60
2023-04-09T21:46:48.873Z,5.50
2023-04-09T21:49:16.455Z,5.63
2023-04-09T21:51:47.570Z,6.20
2023-04-09T21:54:15.047Z,5.47
2023-04-09T21:56:42.452Z,5.50
2023-04-09T21:59:09.917Z,5.73
2023-04-09T22:01:37.387Z,5.30
2023-04-09T22:04:05.094Z,6.00
2023-04-09T22:06:32.643Z,6.00
2023-04-09T22:09:01.826Z,6.17
2023-04-09T22:11:29.625Z,6.30
2023-04-09T22:13:57.505Z,6.47
2023-04-09T22:16:25.951Z,5.60
2023-04-09T22:18:54.202Z,6.20
2023-04-09T22:21:22.377Z,6.20
2023-04-09T22:23:49.886Z,5.73
2023-04-09T22:26:18.678Z,6.03
2023-04-09T22:28:46.137Z,6.20
2023-04-09T22:31:13.666Z,6.27
2023-04-09T22:33:41.463Z,6.00
2023-04-09T22:36:09.124Z,6.07
2023-04-09T22:38:36.619Z,6.20
2023-04-09T22:41:04.064Z,5.90
2023-04-09T22:43:32.816Z,6.80
2023-04-09T22:46:00.294Z,6.00
2023-04-09T22:48:28.863Z,6.10
2023-04-09T22:50:56.336Z,5.90
2023-04-09T22:53:23.749Z,6.13
2023-04-09T22:55:52.004Z,6.27
2023-04-09T22:58:19.573Z,5.83
2023-04-09T23:00:48.532Z,6.33
2023-04-09T23:03:16.893Z,6.10
2023-04-09T23:05:44.748Z,6.13
2023-04-09T23:08:12.282Z,6.30
2023-04-09T23:10:39.719Z,6.70
2023-04-09T23:13:07.171Z,6.40
2023-04-09T23:15:34.854Z,5.90
2023-04-09T23:18:03.706Z,6.70
2023-04-09T23:20:31.150Z,5.83
2023-04-09T23:22:58.549Z,6.30
2023-04-09T23:25:26.172Z,5.90
2023-04-09T23:27:53.638Z,6.23
2023-04-09T23:30:21.854Z,6.10
2023-04-09T23:32:49.666Z,6.03
2023-04-09T23:35:20.353Z,6.30
2023-04-09T23:37:49.015Z,6.60
2023-04-09T23:40:17.970Z,6.30
2023-04-09T23:42:45.774Z,6.20
2023-04-09T23:45:13.222Z,6.53
2023-04-09T23:47:41.635Z,6.80
2023-04-09T23:50:09.365Z,6.30
2023-04-09T23:52:38.713Z,6.47
2023-04-09T23:55:08.827Z,6.60
2023-04-09T23:57:36.407Z,6.60
